createdAt,value
2019-03-12T00:00:43.343Z,1019.70
2019-03-12T00:01:43.328Z,1019.71
2019-03-12T00:02:43.320Z,1019.71
2019-03-12T00:03:43.337Z,1019.73
2019-03-12T00:04:43.324Z,1019.70
2019-03-12T00:05:43.299Z,1019.72
2019-03-12T00:06:43.491Z,1019.70
2019-03-12T00:07:43.285Z,1019.70
2019-03-12T00:08:43.277Z,1019.72
2019-03-12T00:09:43.274Z,1019.72
2019-03-12T00:10:43.462Z,1019.77
2019-03-12T00:11:43.253Z,1019.79
2019-03-12T00:12:43.248Z,1019.82
2019-03-12T00:13:43.241Z,1019.81
2019-03-12T00:14:43.242Z,1019.79
2019-03-12T00:15:43.243Z,1019.79
2019-03-12T00:16:43.517Z,1019.77
2019-03-12T00:17:43.411Z,1019.79
2019-03-12T00:18:43.418Z,1019.78
2019-03-12T00:19:43.190Z,1019.82
2019-03-12T00:20:43.186Z,1019.81
2019-03-12T00:21:43.175Z,1019.78
2019-03-12T00:22:43.370Z,1019.85
2019-03-12T00:23:43.165Z,1019.85
2019-03-12T00:24:43.155Z,1019.89
2019-03-12T00:25:43.168Z,1019.88
2019-03-12T00:26:43.143Z,1019.88
2019-03-12T00:27:43.137Z,1019.86
2019-03-12T00:28:43.127Z,1019.83
2019-03-12T00:29:43.116Z,1019.80
2019-03-12T00:30:43.106Z,1019.78
2019-03-12T00:31:43.310Z,1019.76
2019-03-12T00:32:43.308Z,1019.76
2019-03-12T00:33:43.088Z,1019.72
2019-03-12T00:34:43.109Z,1019.75
2019-03-12T00:35:43.065Z,1019.70
2019-03-12T00:36:43.081Z,1019.70
2019-03-12T00:37:43.075Z,1019.62
2019-03-12T00:38:43.061Z,1019.59
2019-03-12T00:39:43.042Z,1019.61
2019-03-12T00:40:43.049Z,1019.61
2019-03-12T00:41:43.231Z,1019.58
2019-03-12T00:42:43.042Z,1019.60
2019-03-12T00:43:43.216Z,1019.64
2019-03-12T00:44:43.243Z,1019.67
2019-03-12T00:45:43.001Z,1019.68
2019-03-12T00:46:42.988Z,1019.64
2019-03-12T00:47:42.986Z,1019.63
2019-03-12T00:48:42.994Z,1019.69
2019-03-12T00:49:42.962Z,1019.64
2019-03-12T00:50:42.960Z,1019.62
2019-03-12T00:51:42.949Z,1019.60
2019-03-12T00:52:42.955Z,1019.63
2019-03-12T00:53:42.962Z,1019.63
2019-03-12T00:54:42.935Z,1019.67
2019-03-12T00:55:42.917Z,1019.66
2019-03-12T00:56:42.922Z,1019.66
2019-03-12T00:57:42.911Z,1019.62
2019-03-12T00:58:42.890Z,1019.61
2019-03-12T00:59:42.903Z,1019.60
2019-03-12T01:00:42.882Z,1019.60
2019-03-12T01:01:42.880Z,1019.64
2019-03-12T01:02:42.861Z,1019.66
2019-03-12T01:03:42.866Z,1019.64
2019-03-12T01:04:42.858Z,1019.67
2019-03-12T01:05:42.849Z,1019.70
2019-03-12T01:06:42.835Z,1019.64
2019-03-12T01:07:42.831Z,1019.61
2019-03-12T01:08:43.014Z,1019.58
2019-03-12T01:09:42.815Z,1019.55
2019-03-12T01:10:43.013Z,1019.51
2019-03-12T01:11:42.800Z,1019.50
2019-03-12T01:12:42.806Z,1019.45
2019-03-12T01:13:42.784Z,1019.49
2019-03-12T01:14:42.770Z,1019.49
2019-03-12T01:15:42.765Z,1019.44
2019-03-12T01:16:42.749Z,1019.48
2019-03-12T01:17:42.745Z,1019.50
2019-03-12T01:18:42.741Z,1019.42
2019-03-12T01:19:43.008Z,1019.47
2019-03-12T01:20:42.724Z,1019.44
2019-03-12T01:21:42.915Z,1019.45
2019-03-12T01:22:42.898Z,1019.43
2019-03-12T01:23:42.698Z,1019.43
2019-03-12T01:24:42.699Z,1019.43
2019-03-12T01:25:42.675Z,1019.42
2019-03-12T01:26:42.682Z,1019.40
2019-03-12T01:27:42.665Z,1019.40
2019-03-12T01:28:42.650Z,1019.36
2019-03-12T01:29:42.845Z,1019.35
2019-03-12T01:30:42.837Z,1019.36
2019-03-12T01:31:42.838Z,1019.34
2019-03-12T01:32:42.815Z,1019.37
2019-03-12T01:33:42.680Z,1019.37
2019-03-12T01:34:42.823Z,1019.35
2019-03-12T01:35:42.791Z,1019.36
2019-03-12T01:36:42.578Z,1019.42
2019-03-12T01:37:42.787Z,1019.40
2019-03-12T01:38:42.784Z,1019.41
2019-03-12T01:39:42.772Z,1019.39
2019-03-12T01:40:42.560Z,1019.41
2019-03-12T01:41:42.772Z,1019.39
2019-03-12T01:42:42.753Z,1019.36
2019-03-12T01:43:42.723Z,1019.36
2019-03-12T01:44:42.724Z,1019.37
2019-03-12T01:45:42.505Z,1019.35
2019-03-12T01:46:42.707Z,1019.32
2019-03-12T01:47:42.494Z,1019.34
2019-03-12T01:48:42.482Z,1019.32
2019-03-12T01:49:42.475Z,1019.30
2019-03-12T01:50:42.675Z,1019.28
2019-03-12T01:51:42.459Z,1019.23
2019-03-12T01:52:42.460Z,1019.25
2019-03-12T01:53:42.440Z,1019.22
2019-03-12T01:54:42.630Z,1019.20
2019-03-12T01:55:42.627Z,1019.24
2019-03-12T01:56:42.418Z,1019.16
2019-03-12T01:57:42.627Z,1019.16
2019-03-12T01:58:42.419Z,1019.14
2019-03-12T01:59:42.391Z,1019.12
2019-03-12T02:00:42.383Z,1019.14
2019-03-12T02:01:42.378Z,1019.11
2019-03-12T02:02:42.370Z,1019.09
2019-03-12T02:03:42.357Z,1019.07
2019-03-12T02:04:42.350Z,1019.05
2019-03-12T02:05:42.562Z,1019.03
2019-03-12T02:06:42.336Z,1019.00
2019-03-12T02:07:42.326Z,1019.01
2019-03-12T02:08:42.340Z,1018.92
2019-03-12T02:09:42.313Z,1018.87
2019-03-12T02:10:42.309Z,1018.78
2019-03-12T02:11:42.289Z,1018.80
2019-03-12T02:12:42.319Z,1018.76
2019-03-12T02:13:42.291Z,1018.72
2019-03-12T02:14:42.282Z,1018.71
2019-03-12T02:15:42.272Z,1018.68
2019-03-12T02:16:42.457Z,1018.67
2019-03-12T02:17:42.240Z,1018.67
2019-03-12T02:18:42.251Z,1018.65
2019-03-12T02:19:42.232Z,1018.65
2019-03-12T02:20:42.249Z,1018.63
2019-03-12T02:21:42.427Z,1018.57
2019-03-12T02:22:42.206Z,1018.54
2019-03-12T02:23:42.198Z,1018.53
2019-03-12T02:24:52.236Z,1018.51
2019-03-12T02:25:42.407Z,1018.54
2019-03-12T02:26:42.197Z,1018.52
2019-03-12T02:27:42.387Z,1018.51
2019-03-12T02:28:42.165Z,1018.48
2019-03-12T02:29:42.143Z,1018.46
2019-03-12T02:30:42.136Z,1018.43
2019-03-12T02:31:42.141Z,1018.45
2019-03-12T02:32:44.567Z,1018.42
2019-03-12T02:33:42.114Z,1018.41
2019-03-12T02:34:42.119Z,1018.44
2019-03-12T02:35:42.111Z,1018.41
2019-03-12T02:36:42.299Z,1018.41
2019-03-12T02:37:42.136Z,1018.39
2019-03-12T02:38:42.079Z,1018.33
2019-03-12T02:39:42.271Z,1018.33
2019-03-12T02:40:42.263Z,1018.30
2019-03-12T02:41:42.268Z,1018.30
2019-03-12T02:42:42.058Z,1018.34
2019-03-12T02:43:42.024Z,1018.31
2019-03-12T02:44:42.032Z,1018.27
2019-03-12T02:45:42.015Z,1018.26
2019-03-12T02:46:42.008Z,1018.24
2019-03-12T02:47:42.203Z,1018.27
2019-03-12T02:48:42.188Z,1018.29
2019-03-12T02:49:41.979Z,1018.24
2019-03-12T02:50:41.990Z,1018.26
2019-03-12T02:51:42.055Z,1018.27
2019-03-12T02:52:42.004Z,1018.28
2019-03-12T02:53:41.942Z,1018.30
2019-03-12T02:54:41.940Z,1018.25
2019-03-12T02:55:42.140Z,1018.26
2019-03-12T02:56:41.925Z,1018.26
2019-03-12T02:57:41.914Z,1018.24
2019-03-12T02:58:42.107Z,1018.24
2019-03-12T02:59:41.897Z,1018.29
2019-03-12T03:00:41.904Z,1018.25
2019-03-12T03:01:41.887Z,1018.25
2019-03-12T03:02:42.073Z,1018.26
2019-03-12T03:03:41.867Z,1018.25
2019-03-12T03:04:41.861Z,1018.25
2019-03-12T03:05:42.062Z,1018.27
2019-03-12T03:06:41.836Z,1018.29
2019-03-12T03:07:41.840Z,1018.29
2019-03-12T03:08:42.023Z,1018.29
2019-03-12T03:09:41.817Z,1018.21
2019-03-12T03:10:41.807Z,1018.21
2019-03-12T03:11:41.807Z,1018.21
2019-03-12T03:12:41.790Z,1018.21
2019-03-12T03:13:41.777Z,1018.15
2019-03-12T03:14:41.772Z,1018.17
2019-03-12T03:15:41.776Z,1018.15
2019-03-12T03:16:41.766Z,1018.16
2019-03-12T03:17:41.765Z,1018.16
2019-03-12T03:18:41.944Z,1018.20
2019-03-12T03:19:41.742Z,1018.21
2019-03-12T03:20:41.722Z,1018.22
2019-03-12T03:21:41.719Z,1018.19
2019-03-12T03:22:41.724Z,1018.17
2019-03-12T03:23:41.697Z,1018.17
2019-03-12T03:24:41.688Z,1018.15
2019-03-12T03:25:41.693Z,1018.19
2019-03-12T03:26:41.673Z,1018.20
2019-03-12T03:27:41.667Z,1018.21
2019-03-12T03:28:41.688Z,1018.21
2019-03-12T03:29:41.648Z,1018.26
2019-03-12T03:30:41.640Z,1018.22
2019-03-12T03:31:41.629Z,1018.21
2019-03-12T03:32:41.624Z,1018.23
2019-03-12T03:33:41.625Z,1018.23
2019-03-12T03:34:41.807Z,1018.22
2019-03-12T03:35:41.609Z,1018.23
2019-03-12T03:36:41.800Z,1018.20
2019-03-12T03:37:41.596Z,1018.20
2019-03-12T03:38:41.573Z,1018.17
2019-03-12T03:39:41.572Z,1018.15
2019-03-12T03:40:41.553Z,1018.14
2019-03-12T03:41:41.547Z,1018.13
2019-03-12T03:42:41.535Z,1018.13
2019-03-12T03:43:41.536Z,1018.16
2019-03-12T03:44:41.523Z,1018.12
2019-03-12T03:45:41.516Z,1018.12
2019-03-12T03:46:41.510Z,1018.13
2019-03-12T03:47:41.492Z,1018.13
2019-03-12T03:48:41.702Z,1018.09
2019-03-12T03:49:41.689Z,1018.08
2019-03-12T03:50:41.482Z,1018.07
2019-03-12T03:51:41.456Z,1018.00
2019-03-12T03:52:41.483Z,1018.05
2019-03-12T03:53:41.457Z,1018.01
2019-03-12T03:54:41.433Z,1018.01
2019-03-12T03:55:41.629Z,1017.95
2019-03-12T03:56:41.421Z,1017.94
2019-03-12T03:57:41.411Z,1017.97
2019-03-12T03:58:41.523Z,1017.96
2019-03-12T03:59:41.401Z,1017.90
2019-03-12T04:00:41.420Z,1017.88
2019-03-12T04:01:41.381Z,1017.84
2019-03-12T04:02:41.570Z,1017.80
2019-03-12T04:03:41.372Z,1017.80
2019-03-12T04:04:41.351Z,1017.80
2019-03-12T04:05:41.345Z,1017.79
2019-03-12T04:06:41.560Z,1017.81
2019-03-12T04:07:41.327Z,1017.78
2019-03-12T04:08:41.312Z,1017.78
2019-03-12T04:09:41.306Z,1017.72
2019-03-12T04:10:41.292Z,1017.74
2019-03-12T04:11:41.493Z,1017.71
2019-03-12T04:12:41.286Z,1017.67
2019-03-12T04:13:41.363Z,1017.66
2019-03-12T04:14:41.464Z,1017.61
2019-03-12T04:15:41.456Z,1017.58
2019-03-12T04:16:41.454Z,1017.57
2019-03-12T04:17:41.239Z,1017.57
2019-03-12T04:18:41.234Z,1017.52
2019-03-12T04:19:41.231Z,1017.51
2019-03-12T04:20:41.265Z,1017.52
2019-03-12T04:21:41.243Z,1017.49
2019-03-12T04:22:41.193Z,1017.48
2019-03-12T04:23:41.187Z,1017.49
2019-03-12T04:24:41.176Z,1017.43
2019-03-12T04:25:41.172Z,1017.46
2019-03-12T04:26:41.406Z,1017.47
2019-03-12T04:27:41.155Z,1017.48
2019-03-12T04:28:41.159Z,1017.44
2019-03-12T04:29:41.355Z,1017.49
2019-03-12T04:30:41.131Z,1017.46
2019-03-12T04:31:41.128Z,1017.45
2019-03-12T04:32:41.330Z,1017.44
2019-03-12T04:33:41.101Z,1017.39
2019-03-12T04:34:41.101Z,1017.34
2019-03-12T04:35:41.290Z,1017.36
2019-03-12T04:36:41.105Z,1017.31
2019-03-12T04:37:41.294Z,1017.35
2019-03-12T04:38:41.067Z,1017.33
2019-03-12T04:39:41.062Z,1017.33
2019-03-12T04:40:41.046Z,1017.35
2019-03-12T04:41:41.051Z,1017.34
2019-03-12T04:42:41.039Z,1017.35
2019-03-12T04:43:41.029Z,1017.33
2019-03-12T04:44:41.010Z,1017.31
2019-03-12T04:45:41.007Z,1017.29
2019-03-12T04:46:40.997Z,1017.29
2019-03-12T04:47:40.987Z,1017.24
2019-03-12T04:48:40.980Z,1017.24
2019-03-12T04:49:40.977Z,1017.20
2019-03-12T04:50:40.962Z,1017.18
2019-03-12T04:51:40.962Z,1017.18
2019-03-12T04:52:40.959Z,1017.15
2019-03-12T04:53:41.147Z,1017.10
2019-03-12T04:54:41.150Z,1017.08
2019-03-12T04:55:41.159Z,1017.09
2019-03-12T04:56:40.921Z,1017.03
2019-03-12T04:57:40.909Z,1017.08
2019-03-12T04:58:41.116Z,1017.05
2019-03-12T04:59:40.918Z,1017.04
2019-03-12T05:00:40.883Z,1017.03
2019-03-12T05:01:41.079Z,1017.00
2019-03-12T05:02:40.870Z,1017.02
2019-03-12T05:03:40.913Z,1016.97
2019-03-12T05:04:40.860Z,1016.97
2019-03-12T05:05:40.844Z,1016.92
2019-03-12T05:06:40.842Z,1016.91
2019-03-12T05:07:40.822Z,1016.93
2019-03-12T05:08:40.827Z,1016.89
2019-03-12T05:09:40.806Z,1016.80
2019-03-12T05:10:40.833Z,1016.86
2019-03-12T05:11:40.790Z,1016.84
2019-03-12T05:12:40.780Z,1016.80
2019-03-12T05:13:40.776Z,1016.84
2019-03-12T05:14:40.797Z,1016.77
2019-03-12T05:15:40.770Z,1016.79
2019-03-12T05:16:40.986Z,1016.82
2019-03-12T05:17:40.767Z,1016.77
2019-03-12T05:18:40.773Z,1016.78
2019-03-12T05:19:40.940Z,1016.79
2019-03-12T05:20:40.760Z,1016.79
2019-03-12T05:21:40.745Z,1016.78
2019-03-12T05:22:40.710Z,1016.80
2019-03-12T05:23:40.707Z,1016.75
2019-03-12T05:24:40.700Z,1016.82
2019-03-12T05:25:40.681Z,1016.81
2019-03-12T05:26:40.889Z,1016.80
2019-03-12T05:27:40.898Z,1016.79
2019-03-12T05:28:40.653Z,1016.74
2019-03-12T05:29:40.664Z,1016.72
2019-03-12T05:30:40.634Z,1016.70
2019-03-12T05:31:40.636Z,1016.68
2019-03-12T05:32:40.827Z,1016.66
2019-03-12T05:33:40.630Z,1016.65
2019-03-12T05:34:40.607Z,1016.71
2019-03-12T05:35:40.877Z,1016.66
2019-03-12T05:36:40.606Z,1016.65
2019-03-12T05:37:40.604Z,1016.68
2019-03-12T05:38:40.601Z,1016.62
2019-03-12T05:39:40.565Z,1016.63
2019-03-12T05:40:40.561Z,1016.62
2019-03-12T05:41:40.752Z,1016.59
2019-03-12T05:42:40.624Z,1016.64
2019-03-12T05:43:40.544Z,1016.59
2019-03-12T05:44:40.530Z,1016.56
2019-03-12T05:45:40.517Z,1016.54
2019-03-12T05:46:40.522Z,1016.51
2019-03-12T05:47:40.608Z,1016.48
2019-03-12T05:48:40.699Z,1016.49
2019-03-12T05:49:40.482Z,1016.46
2019-03-12T05:50:40.477Z,1016.47
2019-03-12T05:51:40.464Z,1016.43
2019-03-12T05:52:40.467Z,1016.43
2019-03-12T05:53:40.462Z,1016.42
2019-03-12T05:54:40.647Z,1016.43
2019-03-12T05:55:40.442Z,1016.43
2019-03-12T05:56:40.433Z,1016.39
2019-03-12T05:57:40.436Z,1016.40
2019-03-12T05:58:40.415Z,1016.38
2019-03-12T05:59:40.408Z,1016.35
2019-03-12T06:00:40.395Z,1016.39
2019-03-12T06:01:40.405Z,1016.34
2019-03-12T06:02:40.389Z,1016.30
2019-03-12T06:03:40.379Z,1016.27
2019-03-12T06:04:40.377Z,1016.25
2019-03-12T06:05:40.358Z,1016.23
2019-03-12T06:06:40.346Z,1016.20
2019-03-12T06:07:40.336Z,1016.20
2019-03-12T06:08:40.540Z,1016.19
2019-03-12T06:09:40.319Z,1016.17
2019-03-12T06:10:40.319Z,1016.16
2019-03-12T06:11:40.512Z,1016.16
2019-03-12T06:12:40.300Z,1016.13
2019-03-12T06:13:40.344Z,1016.13
2019-03-12T06:14:40.288Z,1016.11
2019-03-12T06:15:40.271Z,1016.05
2019-03-12T06:16:40.280Z,1016.01
2019-03-12T06:17:40.462Z,1016.01
2019-03-12T06:18:40.462Z,1015.98
2019-03-12T06:19:40.245Z,1015.92
2019-03-12T06:20:40.255Z,1015.95
2019-03-12T06:21:40.228Z,1015.96
2019-03-12T06:22:40.213Z,1015.98
2019-03-12T06:23:40.228Z,1015.94
2019-03-12T06:24:40.200Z,1015.93
2019-03-12T06:25:40.196Z,1015.92
2019-03-12T06:26:40.190Z,1015.91
2019-03-12T06:27:40.190Z,1015.90
2019-03-12T06:28:40.372Z,1015.91
2019-03-12T06:29:40.160Z,1015.89
2019-03-12T06:30:40.153Z,1015.88
2019-03-12T06:31:40.147Z,1015.83
2019-03-12T06:32:40.140Z,1015.82
2019-03-12T06:33:40.124Z,1015.81
2019-03-12T06:34:40.329Z,1015.82
2019-03-12T06:35:40.107Z,1015.82
2019-03-12T06:36:40.105Z,1015.84
2019-03-12T06:37:40.302Z,1015.83
2019-03-12T06:38:40.088Z,1015.81
2019-03-12T06:39:42.945Z,1015.81
2019-03-12T06:40:40.085Z,1015.82
2019-03-12T06:41:40.068Z,1015.78
2019-03-12T06:42:40.059Z,1015.74
2019-03-12T06:43:40.046Z,1015.75
2019-03-12T06:44:40.041Z,1015.69
2019-03-12T06:45:40.030Z,1015.65
2019-03-12T06:46:40.229Z,1015.65
2019-03-12T06:47:40.023Z,1015.63
2019-03-12T06:48:40.015Z,1015.61
2019-03-12T06:49:40.199Z,1015.57
2019-03-12T06:50:39.996Z,1015.59
2019-03-12T06:51:40.195Z,1015.51
2019-03-12T06:52:39.975Z,1015.52
2019-03-12T06:53:39.979Z,1015.47
2019-03-12T06:54:39.957Z,1015.49
2019-03-12T06:55:41.163Z,1015.43
2019-03-12T06:56:40.138Z,1015.43
2019-03-12T06:57:40.135Z,1015.41
2019-03-12T06:58:39.938Z,1015.44
2019-03-12T06:59:39.911Z,1015.38
2019-03-12T07:00:39.914Z,1015.38
2019-03-12T07:01:39.906Z,1015.35
2019-03-12T07:02:39.894Z,1015.32
2019-03-12T07:03:39.916Z,1015.30
2019-03-12T07:04:39.882Z,1015.27
2019-03-12T07:05:40.072Z,1015.23
2019-03-12T07:06:39.859Z,1015.19
2019-03-12T07:07:41.580Z,1015.18
2019-03-12T07:08:39.859Z,1015.17
2019-03-12T07:09:39.861Z,1015.14
2019-03-12T07:10:39.831Z,1015.14
2019-03-12T07:11:39.815Z,1015.11
2019-03-12T07:12:39.813Z,1015.12
2019-03-12T07:13:39.815Z,1015.10
2019-03-12T07:14:39.798Z,1015.10
2019-03-12T07:15:39.795Z,1015.07
2019-03-12T07:16:39.798Z,1015.00
2019-03-12T07:17:39.801Z,1014.97
2019-03-12T07:18:39.774Z,1014.92
2019-03-12T07:19:39.775Z,1014.95
2019-03-12T07:20:39.760Z,1014.88
2019-03-12T07:21:39.756Z,1014.90
2019-03-12T07:22:39.746Z,1014.92
2019-03-12T07:23:39.728Z,1014.90
2019-03-12T07:24:39.795Z,1014.90
2019-03-12T07:25:39.733Z,1014.88
2019-03-12T07:26:39.702Z,1014.85
2019-03-12T07:27:39.698Z,1014.89
2019-03-12T07:28:49.738Z,1014.86
2019-03-12T07:29:39.692Z,1014.80
2019-03-12T07:30:39.677Z,1014.86
2019-03-12T07:31:39.661Z,1014.88
2019-03-12T07:32:39.653Z,1014.89
2019-03-12T07:33:39.658Z,1014.85
2019-03-12T07:34:39.650Z,1014.85
2019-03-12T07:35:39.832Z,1014.93
2019-03-12T07:36:39.640Z,1014.93
2019-03-12T07:37:39.616Z,1014.89
2019-03-12T07:38:39.629Z,1014.87
2019-03-12T07:39:39.609Z,1014.80
2019-03-12T07:40:39.594Z,1014.80
2019-03-12T07:41:39.586Z,1014.79
2019-03-12T07:42:39.579Z,1014.81
2019-03-12T07:43:39.566Z,1014.76
2019-03-12T07:44:39.559Z,1014.70
2019-03-12T07:45:42.088Z,1014.69
2019-03-12T07:46:39.539Z,1014.69
2019-03-12T07:47:41.993Z,1014.66
2019-03-12T07:48:39.526Z,1014.67
2019-03-12T07:49:39.532Z,1014.71
2019-03-12T07:50:39.525Z,1014.72
2019-03-12T07:51:39.711Z,1014.66
2019-03-12T07:52:39.713Z,1014.63
2019-03-12T07:53:39.511Z,1014.60
2019-03-12T07:54:39.482Z,1014.62
2019-03-12T07:55:39.681Z,1014.59
2019-03-12T07:56:39.468Z,1014.62
2019-03-12T07:57:39.463Z,1014.59
2019-03-12T07:58:39.461Z,1014.55
2019-03-12T07:59:39.453Z,1014.55
2019-03-12T08:00:39.440Z,1014.46
2019-03-12T08:01:39.443Z,1014.41
2019-03-12T08:02:39.451Z,1014.38
2019-03-12T08:03:39.441Z,1014.34
2019-03-12T08:04:39.414Z,1014.37
2019-03-12T08:05:39.401Z,1014.39
2019-03-12T08:06:39.396Z,1014.37
2019-03-12T08:07:39.377Z,1014.35
2019-03-12T08:08:39.371Z,1014.34
2019-03-12T08:09:39.370Z,1014.30
2019-03-12T08:10:39.362Z,1014.27
2019-03-12T08:11:39.357Z,1014.22
2019-03-12T08:12:39.339Z,1014.22
2019-03-12T08:13:39.341Z,1014.18
2019-03-12T08:14:39.548Z,1014.14
2019-03-12T08:15:39.326Z,1014.09
2019-03-12T08:16:39.315Z,1014.02
2019-03-12T08:17:39.320Z,1014.01
2019-03-12T08:18:39.300Z,1014.00
2019-03-12T08:19:39.304Z,1013.93
2019-03-12T08:20:39.302Z,1013.92
2019-03-12T08:21:39.309Z,1013.82
2019-03-12T08:22:39.293Z,1013.75
2019-03-12T08:23:39.272Z,1013.76
2019-03-12T08:24:39.274Z,1013.70
2019-03-12T08:25:39.253Z,1013.77
2019-03-12T08:26:39.250Z,1013.79
2019-03-12T08:27:39.238Z,1013.69
2019-03-12T08:28:39.229Z,1013.78
2019-03-12T08:29:39.220Z,1013.75
2019-03-12T08:31:39.201Z,1013.71
2019-03-12T08:32:39.206Z,1013.71
2019-03-12T08:33:50.028Z,1013.61
2019-03-12T08:34:39.208Z,1013.49
2019-03-12T08:35:39.182Z,1013.51
2019-03-12T08:36:39.191Z,1013.49
2019-03-12T08:37:39.161Z,1013.49
2019-03-12T08:38:39.180Z,1013.55
2019-03-12T08:39:39.157Z,1013.56
2019-03-12T08:40:51.699Z,1013.55
2019-03-12T08:41:39.160Z,1013.56
2019-03-12T08:42:39.140Z,1013.48
2019-03-12T08:43:39.124Z,1013.44
2019-03-12T08:44:41.435Z,1013.45
2019-03-12T08:45:39.104Z,1013.39
2019-03-12T08:46:39.128Z,1013.40
2019-03-12T08:47:39.101Z,1013.39
2019-03-12T08:48:39.298Z,1013.32
2019-03-12T08:49:39.290Z,1013.33
2019-03-12T08:50:39.070Z,1013.27
2019-03-12T08:51:39.062Z,1013.30
2019-03-12T08:52:39.263Z,1013.27
2019-03-12T08:53:39.049Z,1013.25
2019-03-12T08:54:39.047Z,1013.19
2019-03-12T08:55:39.034Z,1013.14
2019-03-12T08:56:39.229Z,1013.18
2019-03-12T08:57:39.016Z,1013.18
2019-03-12T08:58:39.019Z,1013.14
2019-03-12T08:59:39.007Z,1013.12
2019-03-12T09:00:38.997Z,1013.07
2019-03-12T09:01:39.003Z,1013.05
2019-03-12T09:02:38.977Z,1013.04
2019-03-12T09:03:38.968Z,1013.05
2019-03-12T09:04:38.968Z,1013.03
2019-03-12T09:05:38.956Z,1012.99
2019-03-12T09:06:39.161Z,1013.00
2019-03-12T09:07:38.949Z,1012.94
2019-03-12T09:08:38.939Z,1012.97
2019-03-12T09:09:38.934Z,1012.94
2019-03-12T09:10:38.921Z,1012.88
2019-03-12T09:11:38.921Z,1012.82
2019-03-12T09:12:39.133Z,1012.83
2019-03-12T09:13:39.102Z,1012.81
2019-03-12T09:14:38.891Z,1012.75
2019-03-12T09:15:38.914Z,1012.76
2019-03-12T09:16:38.892Z,1012.74
2019-03-12T09:17:38.886Z,1012.69
2019-03-12T09:18:38.869Z,1012.71
2019-03-12T09:19:39.084Z,1012.66
2019-03-12T09:20:39.055Z,1012.67
2019-03-12T09:21:38.866Z,1012.61
2019-03-12T09:22:39.060Z,1012.66
2019-03-12T09:23:38.851Z,1012.60
2019-03-12T09:24:38.829Z,1012.57
2019-03-12T09:25:38.820Z,1012.63
2019-03-12T09:26:38.816Z,1012.59
2019-03-12T09:27:38.821Z,1012.51
2019-03-12T09:28:38.802Z,1012.55
2019-03-12T09:29:38.793Z,1012.46
2019-03-12T09:30:39.819Z,1012.44
2019-03-12T09:31:38.776Z,1012.46
2019-03-12T09:32:38.786Z,1012.34
2019-03-12T09:33:38.780Z,1012.32
2019-03-12T09:34:38.765Z,1012.34
2019-03-12T09:35:38.749Z,1012.27
2019-03-12T09:36:38.750Z,1012.18
2019-03-12T09:37:38.744Z,1012.17
2019-03-12T09:38:38.739Z,1012.14
2019-03-12T09:39:38.733Z,1012.10
2019-03-12T09:40:38.722Z,1012.06
2019-03-12T09:41:38.730Z,1012.12
2019-03-12T09:42:38.710Z,1011.99
2019-03-12T09:43:38.714Z,1012.00
2019-03-12T09:44:38.716Z,1011.96
2019-03-12T09:45:38.697Z,1011.97
2019-03-12T09:46:38.892Z,1011.92
2019-03-12T09:47:38.678Z,1011.93
2019-03-12T09:48:38.675Z,1011.93
2019-03-12T09:49:38.678Z,1011.87
2019-03-12T09:50:38.659Z,1011.92
2019-03-12T09:51:38.653Z,1011.88
2019-03-12T09:52:38.649Z,1011.88
2019-03-12T09:53:38.635Z,1011.98
2019-03-12T09:54:38.634Z,1011.88
2019-03-12T09:55:38.623Z,1011.84
2019-03-12T09:56:38.632Z,1011.83
2019-03-12T09:57:38.614Z,1011.88
2019-03-12T09:58:38.604Z,1011.86
2019-03-12T09:59:38.602Z,1011.80
2019-03-12T10:00:38.592Z,1011.78
2019-03-12T10:01:38.586Z,1011.79
2019-03-12T10:02:38.586Z,1011.77
2019-03-12T10:03:38.591Z,1011.74
2019-03-12T10:04:38.565Z,1011.74
2019-03-12T10:05:38.764Z,1011.67
2019-03-12T10:06:38.770Z,1011.56
2019-03-12T10:07:40.090Z,1011.64
2019-03-12T10:08:38.569Z,1011.66
2019-03-12T10:09:38.538Z,1011.62
2019-03-12T10:10:38.563Z,1011.57
2019-03-12T10:11:38.737Z,1011.49
2019-03-12T10:12:38.536Z,1011.45
2019-03-12T10:13:38.719Z,1011.40
2019-03-12T10:14:38.511Z,1011.36
2019-03-12T10:15:38.498Z,1011.33
2019-03-12T10:16:38.497Z,1011.29
2019-03-12T10:17:38.500Z,1011.21
2019-03-12T10:18:38.483Z,1011.22
2019-03-12T10:19:38.474Z,1011.18
2019-03-12T10:20:38.700Z,1011.25
2019-03-12T10:21:38.679Z,1011.16
2019-03-12T10:22:38.481Z,1011.17
2019-03-12T10:23:38.447Z,1011.13
2019-03-12T10:24:38.654Z,1011.04
2019-03-12T10:25:38.659Z,1011.08
2019-03-12T10:26:38.447Z,1011.09
2019-03-12T10:27:38.421Z,1010.99
2019-03-12T10:28:38.442Z,1010.98
2019-03-12T10:29:38.417Z,1010.96
2019-03-12T10:30:38.410Z,1010.94
2019-03-12T10:31:38.409Z,1010.88
2019-03-12T10:32:38.397Z,1010.88
2019-03-12T10:33:38.411Z,1010.90
2019-03-12T10:34:38.405Z,1010.77
2019-03-12T10:35:38.381Z,1010.79
2019-03-12T10:36:38.375Z,1010.76
2019-03-12T10:37:38.398Z,1010.74
2019-03-12T10:38:38.375Z,1010.71
2019-03-12T10:39:38.561Z,1010.63
2019-03-12T10:40:38.348Z,1010.56
2019-03-12T10:41:38.549Z,1010.39
2019-03-12T10:42:38.336Z,1010.54
2019-03-12T10:43:38.328Z,1010.48
2019-03-12T10:44:38.334Z,1010.43
2019-03-12T10:45:38.325Z,1010.33
2019-03-12T10:46:38.510Z,1010.33
2019-03-12T10:47:38.310Z,1010.27
2019-03-12T10:48:38.300Z,1010.24
2019-03-12T10:49:38.293Z,1010.18
2019-03-12T10:50:38.307Z,1010.20
2019-03-12T10:51:38.290Z,1010.17
2019-03-12T10:52:38.274Z,1010.00
2019-03-12T10:53:38.273Z,1010.17
2019-03-12T10:54:38.276Z,1010.15
2019-03-12T10:55:38.258Z,1010.03
2019-03-12T10:56:38.257Z,1010.14
2019-03-12T10:57:38.253Z,1010.07
2019-03-12T10:58:38.237Z,1009.95
2019-03-12T10:59:38.229Z,1010.07
2019-03-12T11:00:38.224Z,1010.03
2019-03-12T11:01:38.237Z,1009.93
2019-03-12T11:02:40.530Z,1009.93
2019-03-12T11:03:38.210Z,1010.01
2019-03-12T11:04:38.413Z,1009.88
2019-03-12T11:05:45.765Z,1009.91
2019-03-12T11:06:38.396Z,1009.81
2019-03-12T11:07:38.183Z,1009.80
2019-03-12T11:08:38.402Z,1009.78
2019-03-12T11:09:38.169Z,1009.80
2019-03-12T11:10:38.183Z,1009.82
2019-03-12T11:11:38.184Z,1009.75
2019-03-12T11:12:38.361Z,1009.75
2019-03-12T11:13:38.146Z,1009.68
2019-03-12T11:14:38.158Z,1009.62
2019-03-12T11:15:38.350Z,1009.64
2019-03-12T11:16:38.150Z,1009.48
2019-03-12T11:17:48.998Z,1009.57
2019-03-12T11:18:38.133Z,1009.64
2019-03-12T11:19:38.109Z,1009.63
2019-03-12T11:20:38.109Z,1009.53
2019-03-12T11:21:38.103Z,1009.57
2019-03-12T11:22:38.094Z,1009.67
2019-03-12T11:23:38.104Z,1009.53
2019-03-12T11:24:38.090Z,1009.52
2019-03-12T11:25:38.103Z,1009.42
2019-03-12T11:26:38.086Z,1009.32
2019-03-12T11:27:38.072Z,1009.43
2019-03-12T11:28:38.078Z,1009.34
2019-03-12T11:29:38.071Z,1009.39
2019-03-12T11:30:38.063Z,1009.41
2019-03-12T11:31:38.067Z,1009.27
2019-03-12T11:32:38.242Z,1009.33
2019-03-12T11:33:38.044Z,1009.29
2019-03-12T11:34:38.757Z,1009.24
2019-03-12T11:35:39.618Z,1009.25
2019-03-12T11:36:38.019Z,1009.25
2019-03-12T11:37:38.021Z,1009.17
2019-03-12T11:38:38.033Z,1009.07
2019-03-12T11:39:38.207Z,1009.14
2019-03-12T11:40:38.004Z,1009.13
2019-03-12T11:41:38.212Z,1009.15
2019-03-12T11:42:38.030Z,1009.06
2019-03-12T11:43:37.980Z,1009.06
2019-03-12T11:44:37.983Z,1009.03
2019-03-12T11:45:38.561Z,1008.99
2019-03-12T11:46:43.916Z,1009.01
2019-03-12T11:47:37.961Z,1009.01
2019-03-12T11:48:38.151Z,1008.90
2019-03-12T11:49:38.309Z,1008.94
2019-03-12T11:50:38.030Z,1008.86
2019-03-12T11:51:37.970Z,1008.81
2019-03-12T11:52:38.363Z,1008.70
2019-03-12T11:53:38.072Z,1008.73
2019-03-12T11:54:38.451Z,1008.71
2019-03-12T11:55:37.932Z,1008.79
2019-03-12T11:56:38.134Z,1008.65
2019-03-12T11:57:37.937Z,1008.66
2019-03-12T11:58:37.919Z,1008.67
2019-03-12T11:59:37.878Z,1008.68
2019-03-12T12:00:37.898Z,1008.65
2019-03-12T12:01:37.879Z,1008.63
2019-03-12T12:02:37.873Z,1008.63
2019-03-12T12:03:37.877Z,1008.68
2019-03-12T12:04:37.873Z,1008.60
2019-03-12T12:05:38.059Z,1008.54
2019-03-12T12:06:42.465Z,1008.55